Rollag, Minnesota
Current Conditions -  °F | °C
As of 3:31 PM on Wednesday 17 Dec 2014 (Local Time) from KJKJ Reporting Station
Clear Clear  
Wind Chill:   Ceiling: Unl
Heat Index: 18°   Visibility: 10mi
Dew Point: 16°   Wind: 6mph
Humidity: 93%   Direction: 30°NNE
Pressure: 30.32"   Gusts: NA
Location:  46.8912°N, 96.2982°W
Report Text: KJKJ 172131Z AUTO 03005KT 10SM CLR M08/M09 A3032 RMK AO2
Loading
Personal Weather Stations






























Interactive Weather Map New forecast layout! Learn more

10-Day Weather Forecast

Advertisements
Track Severe Weather on mobile